KBLH

Blythe Airport

Blythe, California, USA
METAR KBLH 161752Z AUTO 00000KT 8SM BKN006 14/12 A3024 RMK AO2 SLP240 T01390122 10139 20094 53020
Observed Flight Rules
Jan-16 @ 17:52 UTC (33 minutes ago) Instrument Flight Rules
Visibility Clouds
8 miles
  • Broken at 600' AGL
Temperatures Readings
Current 14°C / 57°F
Dewpoint 12°C / 54°F
Humidity 88%
Altimeter 30.24" Hg
Pressure 1024 hPa
Elevation 119
METAR KBLH 161752Z AUTO 00000KT 8SM BKN006 14/12 A3024 RMK AO2 SLP240 T01390122 10139 20094 53020
Observed Flight Rules
Jan-16 @ 17:52 UTC
(33 minutes ago)
IFR
Clouds
  • Broken at 600' AGL
Temperature Dewpoint
14°C / 57°F 12°C / 54°F
Humidity Altimeter Pressure
88% 30.24" Hg 1024 hPa